Mississippi State University, Mississippi
Current Conditions -  °F | °C
As of 6:55 PM on Monday 24 Nov 2014 (Local Time) from KSTF Reporting Station
Clear Clear  
Wind Chill: 48°   Ceiling: Unl
Heat Index: 48°   Visibility: NA
Dew Point: 36°   Wind: 3mph
Humidity: 62%   Direction: 290°WNW
Pressure: 30.02"   Gusts: NA
Location:  33.4516°N, 88.7888°W
Report Text: KSTF 250055Z AUTO 29003KT CLR 09/02 A3002 RMK AO2 PWINO
Loading
Personal Weather Stations






























Interactive Weather Map New forecast layout! Learn more

10-Day Weather Forecast

Advertisements
Track Severe Weather on mobile